sensor_id;sensor_type;location;lat;lon;timestamp;temperature;humidity
7388;DHT22;3735;50.136;11.062;2024-02-26T00:00:33;0.50;99.90
7388;DHT22;3735;50.136;11.062;2024-02-26T00:03:01;0.50;99.90
7388;DHT22;3735;50.136;11.062;2024-02-26T00:05:26;0.60;99.90
7388;DHT22;3735;50.136;11.062;2024-02-26T00:07:52;0.70;99.90
7388;DHT22;3735;50.136;11.062;2024-02-26T00:10:18;0.80;99.90
7388;DHT22;3735;50.136;11.062;2024-02-26T00:12:44;0.80;99.90
7388;DHT22;3735;50.136;11.062;2024-02-26T00:15:10;0.90;99.90
7388;DHT22;3735;50.136;11.062;2024-02-26T00:17:36;0.90;99.90
7388;DHT22;3735;50.136;11.062;2024-02-26T00:20:03;0.90;99.90
7388;DHT22;3735;50.136;11.062;2024-02-26T00:22:33;0.90;99.90
7388;DHT22;3735;50.136;11.062;2024-02-26T00:24:59;1.00;99.90
7388;DHT22;3735;50.136;11.062;2024-02-26T00:27:25;1.00;99.90
7388;DHT22;3735;50.136;11.062;2024-02-26T00:29:51;1.00;99.90
7388;DHT22;3735;50.136;11.062;2024-02-26T00:32:16;1.00;99.90
7388;DHT22;3735;50.136;11.062;2024-02-26T00:34:42;1.10;99.90
7388;DHT22;3735;50.136;11.062;2024-02-26T00:37:08;1.10;99.90
7388;DHT22;3735;50.136;11.062;2024-02-26T00:39:34;1.20;99.90
7388;DHT22;3735;50.136;11.062;2024-02-26T00:41:59;1.30;99.90
7388;DHT22;3735;50.136;11.062;2024-02-26T00:44:25;1.20;99.90
7388;DHT22;3735;50.136;11.062;2024-02-26T00:46:51;1.10;99.90
7388;DHT22;3735;50.136;11.062;2024-02-26T00:49:17;1.10;99.90
7388;DHT22;3735;50.136;11.062;2024-02-26T00:51:42;1.00;99.90
7388;DHT22;3735;50.136;11.062;2024-02-26T00:54:08;1.00;99.90
7388;DHT22;3735;50.136;11.062;2024-02-26T00:56:34;1.00;99.90
7388;DHT22;3735;50.136;11.062;2024-02-26T00:58:59;0.90;99.90
7388;DHT22;3735;50.136;11.062;2024-02-26T01:01:25;0.90;99.90
7388;DHT22;3735;50.136;11.062;2024-02-26T01:03:51;0.90;99.90
7388;DHT22;3735;50.136;11.062;2024-02-26T01:06:17;0.90;99.90
7388;DHT22;3735;50.136;11.062;2024-02-26T01:08:43;0.80;99.90
7388;DHT22;3735;50.136;11.062;2024-02-26T01:11:08;0.70;99.90
7388;DHT22;3735;50.136;11.062;2024-02-26T01:13:34;0.70;99.90
7388;DHT22;3735;50.136;11.062;2024-02-26T01:16:00;0.60;99.90
7388;DHT22;3735;50.136;11.062;2024-02-26T01:18:26;0.60;99.90
7388;DHT22;3735;50.136;11.062;2024-02-26T01:20:52;0.60;99.90
7388;DHT22;3735;50.136;11.062;2024-02-26T01:23:20;0.60;99.90
7388;DHT22;3735;50.136;11.062;2024-02-26T01:25:46;0.60;99.90
7388;DHT22;3735;50.136;11.062;2024-02-26T01:28:12;0.60;99.90
7388;DHT22;3735;50.136;11.062;2024-02-26T01:30:37;0.70;99.90
7388;DHT22;3735;50.136;11.062;2024-02-26T01:33:03;0.60;99.90
7388;DHT22;3735;50.136;11.062;2024-02-26T01:35:29;0.50;99.90
7388;DHT22;3735;50.136;11.062;2024-02-26T01:37:55;0.40;99.90
7388;DHT22;3735;50.136;11.062;2024-02-26T01:40:21;0.40;99.90
7388;DHT22;3735;50.136;11.062;2024-02-26T01:42:47;0.30;99.90
7388;DHT22;3735;50.136;11.062;2024-02-26T01:45:17;0.20;99.90
7388;DHT22;3735;50.136;11.062;2024-02-26T01:47:52;0.10;99.90
7388;DHT22;3735;50.136;11.062;2024-02-26T01:50:19;0.10;99.90
7388;DHT22;3735;50.136;11.062;2024-02-26T01:52:50;0.10;99.90
7388;DHT22;3735;50.136;11.062;2024-02-26T01:55:19;0.10;99.90
7388;DHT22;3735;50.136;11.062;2024-02-26T01:57:48;-0.10;99.90
7388;DHT22;3735;50.136;11.062;2024-02-26T02:00:15;-0.20;99.90
7388;DHT22;3735;50.136;11.062;2024-02-26T02:02:43;-0.30;99.90
7388;DHT22;3735;50.136;11.062;2024-02-26T02:05:12;-0.40;99.90
7388;DHT22;3735;50.136;11.062;2024-02-26T02:07:44;-0.50;99.90
7388;DHT22;3735;50.136;11.062;2024-02-26T02:10:10;-0.50;99.90
7388;DHT22;3735;50.136;11.062;2024-02-26T02:12:36;-0.60;99.90
7388;DHT22;3735;50.136;11.062;2024-02-26T02:15:05;-0.60;99.90
7388;DHT22;3735;50.136;11.062;2024-02-26T02:17:31;-0.60;99.90
7388;DHT22;3735;50.136;11.062;2024-02-26T02:19:57;-0.50;99.90
7388;DHT22;3735;50.136;11.062;2024-02-26T02:22:23;-0.50;99.90
7388;DHT22;3735;50.136;11.062;2024-02-26T02:24:52;-0.60;99.90
7388;DHT22;3735;50.136;11.062;2024-02-26T02:27:19;-0.60;99.90
7388;DHT22;3735;50.136;11.062;2024-02-26T02:29:46;-0.70;99.90
7388;DHT22;3735;50.136;11.062;2024-02-26T02:32:14;-0.70;99.90
7388;DHT22;3735;50.136;11.062;2024-02-26T02:34:41;-0.70;99.90
7388;DHT22;3735;50.136;11.062;2024-02-26T02:37:07;-0.60;99.90
7388;DHT22;3735;50.136;11.062;2024-02-26T02:39:33;-0.60;99.90
7388;DHT22;3735;50.136;11.062;2024-02-26T02:41:58;-0.70;99.90
7388;DHT22;3735;50.136;11.062;2024-02-26T02:44:24;-0.70;99.90
7388;DHT22;3735;50.136;11.062;2024-02-26T02:46:50;-0.80;99.90
7388;DHT22;3735;50.136;11.062;2024-02-26T02:49:18;-0.90;99.90
7388;DHT22;3735;50.136;11.062;2024-02-26T02:51:44;-0.90;99.90
7388;DHT22;3735;50.136;11.062;2024-02-26T02:54:10;-0.80;99.90
7388;DHT22;3735;50.136;11.062;2024-02-26T02:56:35;-0.80;99.90
7388;DHT22;3735;50.136;11.062;2024-02-26T02:59:02;-0.80;99.90
7388;DHT22;3735;50.136;11.062;2024-02-26T03:01:28;-0.60;99.90
7388;DHT22;3735;50.136;11.062;2024-02-26T03:03:54;-0.50;99.90
7388;DHT22;3735;50.136;11.062;2024-02-26T03:06:19;-0.40;99.90
7388;DHT22;3735;50.136;11.062;2024-02-26T03:08:46;-0.40;99.90
7388;DHT22;3735;50.136;11.062;2024-02-26T03:11:15;-0.40;99.90
7388;DHT22;3735;50.136;11.062;2024-02-26T03:13:41;-0.20;99.90
7388;DHT22;3735;50.136;11.062;2024-02-26T03:16:07;-0.30;99.90
7388;DHT22;3735;50.136;11.062;2024-02-26T03:18:33;-0.20;99.90
7388;DHT22;3735;50.136;11.062;2024-02-26T03:20:59;-0.10;99.90
7388;DHT22;3735;50.136;11.062;2024-02-26T03:23:25;-0.10;99.90
7388;DHT22;3735;50.136;11.062;2024-02-26T03:25:51;0.00;99.90
7388;DHT22;3735;50.136;11.062;2024-02-26T03:28:17;0.00;99.90
7388;DHT22;3735;50.136;11.062;2024-02-26T03:30:43;0.00;99.90
7388;DHT22;3735;50.136;11.062;2024-02-26T03:33:09;0.10;99.90
7388;DHT22;3735;50.136;11.062;2024-02-26T03:35:34;0.10;99.90
7388;DHT22;3735;50.136;11.062;2024-02-26T03:38:01;0.10;99.90
7388;DHT22;3735;50.136;11.062;2024-02-26T03:40:28;0.10;99.90
7388;DHT22;3735;50.136;11.062;2024-02-26T03:42:53;0.10;99.90
7388;DHT22;3735;50.136;11.062;2024-02-26T03:45:19;0.10;99.90
7388;DHT22;3735;50.136;11.062;2024-02-26T03:47:45;0.10;99.90
7388;DHT22;3735;50.136;11.062;2024-02-26T03:50:11;0.20;99.90
7388;DHT22;3735;50.136;11.062;2024-02-26T03:52:36;0.20;99.90
7388;DHT22;3735;50.136;11.062;2024-02-26T03:55:02;0.30;99.90
7388;DHT22;3735;50.136;11.062;2024-02-26T03:57:28;0.40;99.90
7388;DHT22;3735;50.136;11.062;2024-02-26T03:59:54;0.40;99.90
7388;DHT22;3735;50.136;11.062;2024-02-26T04:02:20;0.40;99.90
7388;DHT22;3735;50.136;11.062;2024-02-26T04:04:46;0.50;99.90
7388;DHT22;3735;50.136;11.062;2024-02-26T04:07:12;0.50;99.90
7388;DHT22;3735;50.136;11.062;2024-02-26T04:09:38;0.50;99.90
7388;DHT22;3735;50.136;11.062;2024-02-26T04:12:05;0.50;99.90
7388;DHT22;3735;50.136;11.062;2024-02-26T04:14:31;0.50;99.90
7388;DHT22;3735;50.136;11.062;2024-02-26T04:16:56;0.60;99.90
7388;DHT22;3735;50.136;11.062;2024-02-26T04:19:22;0.60;99.90
7388;DHT22;3735;50.136;11.062;2024-02-26T04:21:48;0.60;99.90
7388;DHT22;3735;50.136;11.062;2024-02-26T04:24:14;0.70;99.90
7388;DHT22;3735;50.136;11.062;2024-02-26T04:26:39;0.70;99.90
7388;DHT22;3735;50.136;11.062;2024-02-26T04:29:05;0.80;99.90
7388;DHT22;3735;50.136;11.062;2024-02-26T04:31:31;0.90;99.90
7388;DHT22;3735;50.136;11.062;2024-02-26T04:33:58;0.90;99.90
7388;DHT22;3735;50.136;11.062;2024-02-26T04:36:24;0.80;99.90
7388;DHT22;3735;50.136;11.062;2024-02-26T04:38:51;0.90;99.90
7388;DHT22;3735;50.136;11.062;2024-02-26T04:41:19;0.90;99.90
7388;DHT22;3735;50.136;11.062;2024-02-26T04:43:45;0.90;99.90
7388;DHT22;3735;50.136;11.062;2024-02-26T04:46:11;0.90;99.90
7388;DHT22;3735;50.136;11.062;2024-02-26T04:48:37;0.90;99.90
7388;DHT22;3735;50.136;11.062;2024-02-26T04:51:04;0.90;99.90
7388;DHT22;3735;50.136;11.062;2024-02-26T04:53:30;0.90;99.90
7388;DHT22;3735;50.136;11.062;2024-02-26T04:55:59;0.90;99.90
7388;DHT22;3735;50.136;11.062;2024-02-26T04:58:25;0.90;99.90
7388;DHT22;3735;50.136;11.062;2024-02-26T05:00:51;0.90;99.90
7388;DHT22;3735;50.136;11.062;2024-02-26T05:03:17;1.00;99.90
7388;DHT22;3735;50.136;11.062;2024-02-26T05:05:43;1.00;99.90
7388;DHT22;3735;50.136;11.062;2024-02-26T05:08:09;1.00;99.90
7388;DHT22;3735;50.136;11.062;2024-02-26T05:10:37;1.00;99.90
7388;DHT22;3735;50.136;11.062;2024-02-26T05:13:05;1.00;99.90
7388;DHT22;3735;50.136;11.062;2024-02-26T05:15:32;1.10;99.90
7388;DHT22;3735;50.136;11.062;2024-02-26T05:17:58;1.10;99.90
7388;DHT22;3735;50.136;11.062;2024-02-26T05:20:24;1.20;99.90
7388;DHT22;3735;50.136;11.062;2024-02-26T05:22:50;1.20;99.90
7388;DHT22;3735;50.136;11.062;2024-02-26T05:25:17;1.30;99.90
7388;DHT22;3735;50.136;11.062;2024-02-26T05:27:43;1.30;99.90
7388;DHT22;3735;50.136;11.062;2024-02-26T05:30:10;1.40;99.90
7388;DHT22;3735;50.136;11.062;2024-02-26T05:32:37;1.40;99.90
7388;DHT22;3735;50.136;11.062;2024-02-26T05:35:03;1.40;99.90
7388;DHT22;3735;50.136;11.062;2024-02-26T05:37:29;1.40;99.90
7388;DHT22;3735;50.136;11.062;2024-02-26T05:39:56;1.40;99.90
7388;DHT22;3735;50.136;11.062;2024-02-26T05:42:22;1.50;99.90
7388;DHT22;3735;50.136;11.062;2024-02-26T05:44:47;1.50;99.90
7388;DHT22;3735;50.136;11.062;2024-02-26T05:47:13;1.50;99.90
7388;DHT22;3735;50.136;11.062;2024-02-26T05:49:39;1.60;99.90
7388;DHT22;3735;50.136;11.062;2024-02-26T05:52:06;1.60;99.90
7388;DHT22;3735;50.136;11.062;2024-02-26T05:54:32;1.60;99.90
7388;DHT22;3735;50.136;11.062;2024-02-26T05:56:58;1.60;99.90
7388;DHT22;3735;50.136;11.062;2024-02-26T05:59:23;1.70;99.90
7388;DHT22;3735;50.136;11.062;2024-02-26T06:01:49;1.70;99.90
7388;DHT22;3735;50.136;11.062;2024-02-26T06:04:15;1.70;99.90
7388;DHT22;3735;50.136;11.062;2024-02-26T06:06:45;1.70;99.90
7388;DHT22;3735;50.136;11.062;2024-02-26T06:09:11;1.80;99.90
7388;DHT22;3735;50.136;11.062;2024-02-26T06:11:38;1.80;99.90
7388;DHT22;3735;50.136;11.062;2024-02-26T06:14:04;1.80;99.90
7388;DHT22;3735;50.136;11.062;2024-02-26T06:16:30;1.80;99.90
7388;DHT22;3735;50.136;11.062;2024-02-26T06:18:56;1.80;99.90
7388;DHT22;3735;50.136;11.062;2024-02-26T06:21:22;1.80;99.90
7388;DHT22;3735;50.136;11.062;2024-02-26T06:23:48;1.80;99.90
7388;DHT22;3735;50.136;11.062;2024-02-26T06:26:14;1.90;99.90
7388;DHT22;3735;50.136;11.062;2024-02-26T06:28:40;1.90;99.90
7388;DHT22;3735;50.136;11.062;2024-02-26T06:31:06;1.90;99.90
7388;DHT22;3735;50.136;11.062;2024-02-26T06:33:32;2.10;99.90
7388;DHT22;3735;50.136;11.062;2024-02-26T06:35:58;2.20;99.90
7388;DHT22;3735;50.136;11.062;2024-02-26T06:38:24;2.30;99.90
7388;DHT22;3735;50.136;11.062;2024-02-26T06:41:01;2.40;99.90
7388;DHT22;3735;50.136;11.062;2024-02-26T06:44:00;2.40;99.90
7388;DHT22;3735;50.136;11.062;2024-02-26T06:46:48;2.50;99.90
7388;DHT22;3735;50.136;11.062;2024-02-26T06:49:29;2.70;99.90
7388;DHT22;3735;50.136;11.062;2024-02-26T06:58:53;3.20;99.90
7388;DHT22;3735;50.136;11.062;2024-02-26T07:02:01;3.30;99.90
7388;DHT22;3735;50.136;11.062;2024-02-26T07:04:58;3.40;99.90
7388;DHT22;3735;50.136;11.062;2024-02-26T07:07:54;3.40;99.90
7388;DHT22;3735;50.136;11.062;2024-02-26T07:14:13;3.50;99.90
7388;DHT22;3735;50.136;11.062;2024-02-26T07:17:15;3.50;99.90
7388;DHT22;3735;50.136;11.062;2024-02-26T07:20:32;3.60;99.90
7388;DHT22;3735;50.136;11.062;2024-02-26T07:23:29;3.70;99.90
7388;DHT22;3735;50.136;11.062;2024-02-26T07:26:01;3.80;99.90
7388;DHT22;3735;50.136;11.062;2024-02-26T07:28:57;3.80;99.90
7388;DHT22;3735;50.136;11.062;2024-02-26T07:31:50;3.90;99.90
7388;DHT22;3735;50.136;11.062;2024-02-26T07:38:06;4.00;99.90
7388;DHT22;3735;50.136;11.062;2024-02-26T07:41:18;4.00;99.90
7388;DHT22;3735;50.136;11.062;2024-02-26T07:45:13;4.00;99.90
7388;DHT22;3735;50.136;11.062;2024-02-26T08:23:08;5.40;99.90
7388;DHT22;3735;50.136;11.062;2024-02-26T08:26:09;5.50;99.90
7388;DHT22;3735;50.136;11.062;2024-02-26T08:29:28;5.50;99.90
7388;DHT22;3735;50.136;11.062;2024-02-26T08:39:05;6.00;99.90
7388;DHT22;3735;50.136;11.062;2024-02-26T08:50:03;6.50;99.90
7388;DHT22;3735;50.136;11.062;2024-02-26T08:57:43;7.30;99.90
7388;DHT22;3735;50.136;11.062;2024-02-26T09:01:55;7.40;99.90
7388;DHT22;3735;50.136;11.062;2024-02-26T09:04:57;7.50;99.90
7388;DHT22;3735;50.136;11.062;2024-02-26T09:27:03;10.00;99.90
7388;DHT22;3735;50.136;11.062;2024-02-26T09:31:04;11.00;99.90
7388;DHT22;3735;50.136;11.062;2024-02-26T09:44:54;13.40;99.90
7388;DHT22;3735;50.136;11.062;2024-02-26T09:48:03;13.20;99.90
7388;DHT22;3735;50.136;11.062;2024-02-26T09:51:34;13.10;99.90
7388;DHT22;3735;50.136;11.062;2024-02-26T09:54:23;13.30;99.90
7388;DHT22;3735;50.136;11.062;2024-02-26T09:57:19;13.50;99.90
7388;DHT22;3735;50.136;11.062;2024-02-26T10:00:04;13.50;99.90
7388;DHT22;3735;50.136;11.062;2024-02-26T10:03:25;13.10;99.90
7388;DHT22;3735;50.136;11.062;2024-02-26T10:06:39;12.90;99.90
7388;DHT22;3735;50.136;11.062;2024-02-26T10:09:41;12.40;99.90
7388;DHT22;3735;50.136;11.062;2024-02-26T10:12:51;11.90;99.90
7388;DHT22;3735;50.136;11.062;2024-02-26T10:16:29;11.50;99.90
7388;DHT22;3735;50.136;11.062;2024-02-26T10:19:53;11.30;99.90
7388;DHT22;3735;50.136;11.062;2024-02-26T10:22:55;11.20;99.90
7388;DHT22;3735;50.136;11.062;2024-02-26T10:26:46;11.20;99.90
7388;DHT22;3735;50.136;11.062;2024-02-26T10:29:29;11.20;99.90
7388;DHT22;3735;50.136;11.062;2024-02-26T10:32:30;11.20;99.90
7388;DHT22;3735;50.136;11.062;2024-02-26T10:35:05;11.20;99.90
7388;DHT22;3735;50.136;11.062;2024-02-26T10:38:15;11.00;99.90
7388;DHT22;3735;50.136;11.062;2024-02-26T10:42:03;10.90;99.90
7388;DHT22;3735;50.136;11.062;2024-02-26T11:01:04;14.90;99.90
7388;DHT22;3735;50.136;11.062;2024-02-26T11:06:57;20.80;99.90
7388;DHT22;3735;50.136;11.062;2024-02-26T11:13:09;22.80;99.90
7388;DHT22;3735;50.136;11.062;2024-02-26T11:19:53;23.30;99.90
7388;DHT22;3735;50.136;11.062;2024-02-26T11:22:19;22.30;99.90
7388;DHT22;3735;50.136;11.062;2024-02-26T11:25:57;21.90;99.90
7388;DHT22;3735;50.136;11.062;2024-02-26T11:32:07;21.90;99.90
7388;DHT22;3735;50.136;11.062;2024-02-26T11:34:33;22.10;99.90
7388;DHT22;3735;50.136;11.062;2024-02-26T11:40:21;21.90;99.90
7388;DHT22;3735;50.136;11.062;2024-02-26T11:43:07;21.30;99.90
7388;DHT22;3735;50.136;11.062;2024-02-26T11:48:20;20.20;99.90
7388;DHT22;3735;50.136;11.062;2024-02-26T11:51:07;20.90;99.90
7388;DHT22;3735;50.136;11.062;2024-02-26T11:54:47;22.60;99.90
7388;DHT22;3735;50.136;11.062;2024-02-26T12:00:47;24.00;99.90
7388;DHT22;3735;50.136;11.062;2024-02-26T12:03:38;22.20;99.90
7388;DHT22;3735;50.136;11.062;2024-02-26T12:10:54;19.40;99.90
7388;DHT22;3735;50.136;11.062;2024-02-26T12:16:58;19.40;99.90
7388;DHT22;3735;50.136;11.062;2024-02-26T12:20:13;20.70;99.90
7388;DHT22;3735;50.136;11.062;2024-02-26T12:22:54;20.20;99.90
7388;DHT22;3735;50.136;11.062;2024-02-26T12:26:26;18.50;99.90
7388;DHT22;3735;50.136;11.062;2024-02-26T12:29:05;18.00;99.90
7388;DHT22;3735;50.136;11.062;2024-02-26T12:31:56;17.80;99.90
7388;DHT22;3735;50.136;11.062;2024-02-26T12:34:52;17.20;99.90
7388;DHT22;3735;50.136;11.062;2024-02-26T12:38:04;16.20;99.90
7388;DHT22;3735;50.136;11.062;2024-02-26T12:41:40;15.50;99.90
7388;DHT22;3735;50.136;11.062;2024-02-26T12:43:53;15.20;99.90
7388;DHT22;3735;50.136;11.062;2024-02-26T12:47:40;16.00;99.90
7388;DHT22;3735;50.136;11.062;2024-02-26T12:51:27;17.80;99.90
7388;DHT22;3735;50.136;11.062;2024-02-26T12:54:50;19.50;99.90
7388;DHT22;3735;50.136;11.062;2024-02-26T12:58:08;20.00;99.90
7388;DHT22;3735;50.136;11.062;2024-02-26T13:01:00;20.20;99.90
7388;DHT22;3735;50.136;11.062;2024-02-26T13:07:34;18.60;99.90
7388;DHT22;3735;50.136;11.062;2024-02-26T13:10:41;18.10;99.90
7388;DHT22;3735;50.136;11.062;2024-02-26T13:13:47;18.50;99.90
7388;DHT22;3735;50.136;11.062;2024-02-26T13:24:40;17.30;99.90
7388;DHT22;3735;50.136;11.062;2024-02-26T13:28:04;16.90;99.90
7388;DHT22;3735;50.136;11.062;2024-02-26T13:31:34;16.30;99.90
7388;DHT22;3735;50.136;11.062;2024-02-26T13:34:48;15.80;99.90
7388;DHT22;3735;50.136;11.062;2024-02-26T13:37:56;15.80;99.90
7388;DHT22;3735;50.136;11.062;2024-02-26T13:41:13;15.90;99.90
7388;DHT22;3735;50.136;11.062;2024-02-26T13:47:35;16.40;99.90
7388;DHT22;3735;50.136;11.062;2024-02-26T13:53:49;17.40;99.90
7388;DHT22;3735;50.136;11.062;2024-02-26T14:07:24;16.60;99.90
7388;DHT22;3735;50.136;11.062;2024-02-26T14:10:35;16.50;99.90
7388;DHT22;3735;50.136;11.062;2024-02-26T14:13:43;16.00;99.90
7388;DHT22;3735;50.136;11.062;2024-02-26T14:17:20;15.40;99.90
7388;DHT22;3735;50.136;11.062;2024-02-26T14:24:05;14.60;99.90
7388;DHT22;3735;50.136;11.062;2024-02-26T14:27:03;14.20;99.90
7388;DHT22;3735;50.136;11.062;2024-02-26T14:48:32;13.40;99.90
7388;DHT22;3735;50.136;11.062;2024-02-26T15:25:30;11.90;99.90
7388;DHT22;3735;50.136;11.062;2024-02-26T15:29:07;11.90;99.90
7388;DHT22;3735;50.136;11.062;2024-02-26T15:36:05;11.70;99.90
7388;DHT22;3735;50.136;11.062;2024-02-26T15:51:30;11.20;99.90
7388;DHT22;3735;50.136;11.062;2024-02-26T15:54:18;11.10;99.90
7388;DHT22;3735;50.136;11.062;2024-02-26T16:00:42;10.90;99.90
7388;DHT22;3735;50.136;11.062;2024-02-26T16:14:42;10.70;99.90
7388;DHT22;3735;50.136;11.062;2024-02-26T16:21:43;10.60;99.90
7388;DHT22;3735;50.136;11.062;2024-02-26T16:28:31;10.40;99.90
7388;DHT22;3735;50.136;11.062;2024-02-26T16:31:50;10.30;99.90
7388;DHT22;3735;50.136;11.062;2024-02-26T16:41:51;10.20;99.90
7388;DHT22;3735;50.136;11.062;2024-02-26T16:47:56;10.00;99.90
7388;DHT22;3735;50.136;11.062;2024-02-26T16:54:49;9.90;99.90
7388;DHT22;3735;50.136;11.062;2024-02-26T16:58:14;9.80;99.90
7388;DHT22;3735;50.136;11.062;2024-02-26T17:00:40;9.80;99.90
7388;DHT22;3735;50.136;11.062;2024-02-26T17:03:05;9.90;99.90
7388;DHT22;3735;50.136;11.062;2024-02-26T17:10:05;9.80;99.90
7388;DHT22;3735;50.136;11.062;2024-02-26T17:13:19;9.70;99.90
7388;DHT22;3735;50.136;11.062;2024-02-26T17:19:44;9.50;99.90
7388;DHT22;3735;50.136;11.062;2024-02-26T17:23:21;9.40;99.90
7388;DHT22;3735;50.136;11.062;2024-02-26T17:26:33;9.20;99.90
7388;DHT22;3735;50.136;11.062;2024-02-26T17:29:51;9.10;99.90
7388;DHT22;3735;50.136;11.062;2024-02-26T17:32:23;8.90;99.90
7388;DHT22;3735;50.136;11.062;2024-02-26T17:38:36;8.70;99.90
7388;DHT22;3735;50.136;11.062;2024-02-26T17:41:23;8.50;99.90
7388;DHT22;3735;50.136;11.062;2024-02-26T17:44:42;8.50;99.90
7388;DHT22;3735;50.136;11.062;2024-02-26T17:47:56;8.40;99.90
7388;DHT22;3735;50.136;11.062;2024-02-26T17:57:28;8.20;99.90
7388;DHT22;3735;50.136;11.062;2024-02-26T18:00:48;8.10;99.90
7388;DHT22;3735;50.136;11.062;2024-02-26T18:07:03;8.00;99.90
7388;DHT22;3735;50.136;11.062;2024-02-26T18:10:22;8.00;99.90
7388;DHT22;3735;50.136;11.062;2024-02-26T18:13:07;7.90;99.90
7388;DHT22;3735;50.136;11.062;2024-02-26T18:16:25;7.90;99.90
7388;DHT22;3735;50.136;11.062;2024-02-26T18:19:49;7.90;99.90
7388;DHT22;3735;50.136;11.062;2024-02-26T18:23:36;7.90;99.90
7388;DHT22;3735;50.136;11.062;2024-02-26T18:30:20;7.80;99.90
7388;DHT22;3735;50.136;11.062;2024-02-26T18:33:29;7.60;99.90
7388;DHT22;3735;50.136;11.062;2024-02-26T18:36:07;7.50;99.90
7388;DHT22;3735;50.136;11.062;2024-02-26T18:38:39;7.40;99.90
7388;DHT22;3735;50.136;11.062;2024-02-26T18:41:55;7.40;99.90
7388;DHT22;3735;50.136;11.062;2024-02-26T18:44:24;7.30;99.90
7388;DHT22;3735;50.136;11.062;2024-02-26T18:47:02;7.20;99.90
7388;DHT22;3735;50.136;11.062;2024-02-26T18:49:39;7.20;99.90
7388;DHT22;3735;50.136;11.062;2024-02-26T18:52:26;7.10;99.90
7388;DHT22;3735;50.136;11.062;2024-02-26T18:55:01;7.10;99.90
7388;DHT22;3735;50.136;11.062;2024-02-26T19:00:44;7.20;99.90
7388;DHT22;3735;50.136;11.062;2024-02-26T19:03:32;7.10;99.90
7388;DHT22;3735;50.136;11.062;2024-02-26T19:07:06;7.10;99.90
7388;DHT22;3735;50.136;11.062;2024-02-26T19:13:54;6.90;99.90
7388;DHT22;3735;50.136;11.062;2024-02-26T19:16:25;6.90;99.90
7388;DHT22;3735;50.136;11.062;2024-02-26T19:18:53;6.90;99.90
7388;DHT22;3735;50.136;11.062;2024-02-26T19:21:25;6.90;99.90
7388;DHT22;3735;50.136;11.062;2024-02-26T19:24:04;6.90;99.90
7388;DHT22;3735;50.136;11.062;2024-02-26T19:26:42;7.00;99.90
7388;DHT22;3735;50.136;11.062;2024-02-26T19:29:38;7.00;99.90
7388;DHT22;3735;50.136;11.062;2024-02-26T19:32:19;7.20;99.90
7388;DHT22;3735;50.136;11.062;2024-02-26T19:35:47;7.20;99.90
7388;DHT22;3735;50.136;11.062;2024-02-26T19:38:51;7.20;99.90
7388;DHT22;3735;50.136;11.062;2024-02-26T19:41:51;7.20;99.90
7388;DHT22;3735;50.136;11.062;2024-02-26T19:44:45;7.30;99.90
7388;DHT22;3735;50.136;11.062;2024-02-26T19:48:04;7.30;99.90
7388;DHT22;3735;50.136;11.062;2024-02-26T19:51:01;7.30;99.90
7388;DHT22;3735;50.136;11.062;2024-02-26T19:53:34;7.30;99.90
7388;DHT22;3735;50.136;11.062;2024-02-26T19:56:44;7.40;99.90
7388;DHT22;3735;50.136;11.062;2024-02-26T20:00:07;7.40;99.90
7388;DHT22;3735;50.136;11.062;2024-02-26T20:03:10;7.30;99.90
7388;DHT22;3735;50.136;11.062;2024-02-26T20:06:14;7.30;99.90
7388;DHT22;3735;50.136;11.062;2024-02-26T20:12:18;7.40;99.90
7388;DHT22;3735;50.136;11.062;2024-02-26T20:18:25;7.30;99.90
7388;DHT22;3735;50.136;11.062;2024-02-26T20:27:09;7.30;99.90
7388;DHT22;3735;50.136;11.062;2024-02-26T20:30:19;7.30;99.90
7388;DHT22;3735;50.136;11.062;2024-02-26T20:32:51;7.30;99.90
7388;DHT22;3735;50.136;11.062;2024-02-26T20:35:27;7.20;99.90
7388;DHT22;3735;50.136;11.062;2024-02-26T20:38:10;7.20;99.90
7388;DHT22;3735;50.136;11.062;2024-02-26T20:40:55;7.20;99.90
7388;DHT22;3735;50.136;11.062;2024-02-26T20:44:19;7.20;99.90
7388;DHT22;3735;50.136;11.062;2024-02-26T20:50:30;7.20;99.90
7388;DHT22;3735;50.136;11.062;2024-02-26T20:53:05;7.30;99.90
7388;DHT22;3735;50.136;11.062;2024-02-26T20:55:58;7.30;99.90
7388;DHT22;3735;50.136;11.062;2024-02-26T20:58:27;7.20;99.90
7388;DHT22;3735;50.136;11.062;2024-02-26T21:01:14;7.20;99.90
7388;DHT22;3735;50.136;11.062;2024-02-26T21:04:23;7.20;99.90
7388;DHT22;3735;50.136;11.062;2024-02-26T21:11:14;7.20;99.90
7388;DHT22;3735;50.136;11.062;2024-02-26T21:14:02;7.10;99.90
7388;DHT22;3735;50.136;11.062;2024-02-26T21:19:44;7.00;99.90
7388;DHT22;3735;50.136;11.062;2024-02-26T21:22:14;6.90;99.90
7388;DHT22;3735;50.136;11.062;2024-02-26T21:25:02;6.90;99.90
7388;DHT22;3735;50.136;11.062;2024-02-26T21:27:43;6.90;99.90
7388;DHT22;3735;50.136;11.062;2024-02-26T21:30:13;6.90;99.90
7388;DHT22;3735;50.136;11.062;2024-02-26T21:33:01;6.90;99.90
7388;DHT22;3735;50.136;11.062;2024-02-26T21:35:50;6.90;99.90
7388;DHT22;3735;50.136;11.062;2024-02-26T21:38:21;6.90;99.90
7388;DHT22;3735;50.136;11.062;2024-02-26T21:40:57;6.90;99.90
7388;DHT22;3735;50.136;11.062;2024-02-26T22:29:23;6.90;99.90
7388;DHT22;3735;50.136;11.062;2024-02-26T22:32:33;7.00;99.90
7388;DHT22;3735;50.136;11.062;2024-02-26T22:38:53;7.00;99.90
7388;DHT22;3735;50.136;11.062;2024-02-26T22:46:28;7.00;99.90
7388;DHT22;3735;50.136;11.062;2024-02-26T22:53:52;7.10;99.90
7388;DHT22;3735;50.136;11.062;2024-02-26T22:57:09;7.00;99.90
7388;DHT22;3735;50.136;11.062;2024-02-26T23:00:34;7.00;99.90
7388;DHT22;3735;50.136;11.062;2024-02-26T23:07:24;7.00;99.90
7388;DHT22;3735;50.136;11.062;2024-02-26T23:11:10;6.90;99.90
7388;DHT22;3735;50.136;11.062;2024-02-26T23:22:45;7.00;99.90
7388;DHT22;3735;50.136;11.062;2024-02-26T23:26:25;6.90;99.90
7388;DHT22;3735;50.136;11.062;2024-02-26T23:29:28;6.90;99.90
7388;DHT22;3735;50.136;11.062;2024-02-26T23:36:50;6.90;99.90
7388;DHT22;3735;50.136;11.062;2024-02-26T23:40:39;6.80;99.90
7388;DHT22;3735;50.136;11.062;2024-02-26T23:47:52;6.80;99.90
